sensor_id;sensor_type;location;lat;lon;timestamp;P1;durP1;ratioP1;P2;durP2;ratioP2
7365;SDS011;3723;52.220;8.792;2024-01-30T00:01:08;13.87;;;3.97;;
7365;SDS011;3723;52.220;8.792;2024-01-30T00:03:36;14.10;;;4.57;;
7365;SDS011;3723;52.220;8.792;2024-01-30T00:06:02;18.27;;;7.70;;
7365;SDS011;3723;52.220;8.792;2024-01-30T00:08:30;14.17;;;4.67;;
7365;SDS011;3723;52.220;8.792;2024-01-30T00:10:58;9.63;;;3.53;;
7365;SDS011;3723;52.220;8.792;2024-01-30T00:13:25;24.60;;;12.40;;
7365;SDS011;3723;52.220;8.792;2024-01-30T00:15:52;12.00;;;4.90;;
7365;SDS011;3723;52.220;8.792;2024-01-30T00:18:19;13.60;;;5.07;;
7365;SDS011;3723;52.220;8.792;2024-01-30T00:20:46;12.30;;;4.50;;
7365;SDS011;3723;52.220;8.792;2024-01-30T00:23:13;21.37;;;8.30;;
7365;SDS011;3723;52.220;8.792;2024-01-30T00:25:40;17.07;;;6.00;;
7365;SDS011;3723;52.220;8.792;2024-01-30T00:28:08;17.73;;;5.43;;
7365;SDS011;3723;52.220;8.792;2024-01-30T00:30:35;12.07;;;4.47;;
7365;SDS011;3723;52.220;8.792;2024-01-30T00:33:02;12.00;;;4.83;;
7365;SDS011;3723;52.220;8.792;2024-01-30T00:35:29;13.60;;;4.50;;
7365;SDS011;3723;52.220;8.792;2024-01-30T00:37:56;11.83;;;4.23;;
7365;SDS011;3723;52.220;8.792;2024-01-30T00:40:23;9.47;;;3.40;;
7365;SDS011;3723;52.220;8.792;2024-01-30T00:42:50;15.03;;;5.10;;
7365;SDS011;3723;52.220;8.792;2024-01-30T00:45:18;16.50;;;6.57;;
7365;SDS011;3723;52.220;8.792;2024-01-30T00:47:45;26.60;;;9.30;;
7365;SDS011;3723;52.220;8.792;2024-01-30T00:50:12;15.00;;;5.60;;
7365;SDS011;3723;52.220;8.792;2024-01-30T00:52:39;22.57;;;9.40;;
7365;SDS011;3723;52.220;8.792;2024-01-30T00:55:07;11.30;;;3.70;;
7365;SDS011;3723;52.220;8.792;2024-01-30T00:57:33;15.57;;;6.03;;
7365;SDS011;3723;52.220;8.792;2024-01-30T01:00:00;24.37;;;10.90;;
7365;SDS011;3723;52.220;8.792;2024-01-30T01:02:29;18.07;;;7.00;;
7365;SDS011;3723;52.220;8.792;2024-01-30T01:04:56;21.13;;;8.53;;
7365;SDS011;3723;52.220;8.792;2024-01-30T01:07:23;17.60;;;7.17;;
7365;SDS011;3723;52.220;8.792;2024-01-30T01:09:51;11.50;;;4.67;;
7365;SDS011;3723;52.220;8.792;2024-01-30T01:12:18;20.63;;;8.50;;
7365;SDS011;3723;52.220;8.792;2024-01-30T01:14:44;24.60;;;10.50;;
7365;SDS011;3723;52.220;8.792;2024-01-30T01:17:11;12.97;;;5.20;;
7365;SDS011;3723;52.220;8.792;2024-01-30T01:19:39;12.47;;;5.20;;
7365;SDS011;3723;52.220;8.792;2024-01-30T01:22:06;14.70;;;6.47;;
7365;SDS011;3723;52.220;8.792;2024-01-30T01:24:33;15.87;;;5.60;;
7365;SDS011;3723;52.220;8.792;2024-01-30T01:27:00;22.77;;;9.70;;
7365;SDS011;3723;52.220;8.792;2024-01-30T01:29:27;19.23;;;7.67;;
7365;SDS011;3723;52.220;8.792;2024-01-30T01:31:54;11.67;;;4.30;;
7365;SDS011;3723;52.220;8.792;2024-01-30T01:34:21;16.13;;;7.13;;
7365;SDS011;3723;52.220;8.792;2024-01-30T01:36:50;13.87;;;5.80;;
7365;SDS011;3723;52.220;8.792;2024-01-30T01:39:20;14.33;;;6.60;;
7365;SDS011;3723;52.220;8.792;2024-01-30T01:41:48;12.87;;;4.50;;
7365;SDS011;3723;52.220;8.792;2024-01-30T01:44:15;14.93;;;4.70;;
7365;SDS011;3723;52.220;8.792;2024-01-30T01:46:43;14.07;;;5.50;;
7365;SDS011;3723;52.220;8.792;2024-01-30T01:49:10;11.83;;;4.63;;
7365;SDS011;3723;52.220;8.792;2024-01-30T01:51:37;18.33;;;8.13;;
7365;SDS011;3723;52.220;8.792;2024-01-30T01:54:07;12.97;;;5.83;;
7365;SDS011;3723;52.220;8.792;2024-01-30T01:56:34;12.40;;;4.30;;
7365;SDS011;3723;52.220;8.792;2024-01-30T01:59:04;21.07;;;9.23;;
7365;SDS011;3723;52.220;8.792;2024-01-30T02:01:33;14.47;;;5.23;;
7365;SDS011;3723;52.220;8.792;2024-01-30T02:04:00;27.13;;;10.40;;
7365;SDS011;3723;52.220;8.792;2024-01-30T02:06:27;15.37;;;6.13;;
7365;SDS011;3723;52.220;8.792;2024-01-30T02:08:54;15.83;;;5.80;;
7365;SDS011;3723;52.220;8.792;2024-01-30T02:11:24;23.90;;;10.60;;
7365;SDS011;3723;52.220;8.792;2024-01-30T02:13:50;14.90;;;6.07;;
7365;SDS011;3723;52.220;8.792;2024-01-30T02:16:17;23.50;;;11.20;;
7365;SDS011;3723;52.220;8.792;2024-01-30T02:18:45;13.10;;;4.60;;
7365;SDS011;3723;52.220;8.792;2024-01-30T02:21:14;15.87;;;5.70;;
7365;SDS011;3723;52.220;8.792;2024-01-30T02:23:43;15.47;;;6.67;;
7365;SDS011;3723;52.220;8.792;2024-01-30T02:26:10;18.40;;;8.20;;
7365;SDS011;3723;52.220;8.792;2024-01-30T02:28:37;18.87;;;7.87;;
7365;SDS011;3723;52.220;8.792;2024-01-30T02:31:04;18.10;;;7.00;;
7365;SDS011;3723;52.220;8.792;2024-01-30T02:33:31;16.83;;;7.00;;
7365;SDS011;3723;52.220;8.792;2024-01-30T02:35:58;14.60;;;5.40;;
7365;SDS011;3723;52.220;8.792;2024-01-30T02:38:26;19.60;;;8.10;;
7365;SDS011;3723;52.220;8.792;2024-01-30T02:40:54;16.70;;;6.50;;
7365;SDS011;3723;52.220;8.792;2024-01-30T02:43:21;14.70;;;5.70;;
7365;SDS011;3723;52.220;8.792;2024-01-30T02:45:48;17.00;;;6.17;;
7365;SDS011;3723;52.220;8.792;2024-01-30T02:48:14;14.93;;;6.03;;
7365;SDS011;3723;52.220;8.792;2024-01-30T02:50:41;21.57;;;6.13;;
7365;SDS011;3723;52.220;8.792;2024-01-30T02:53:08;16.10;;;6.40;;
7365;SDS011;3723;52.220;8.792;2024-01-30T02:55:36;13.77;;;5.07;;
7365;SDS011;3723;52.220;8.792;2024-01-30T02:58:03;11.77;;;4.90;;
7365;SDS011;3723;52.220;8.792;2024-01-30T03:00:30;17.30;;;5.97;;
7365;SDS011;3723;52.220;8.792;2024-01-30T03:02:58;28.53;;;11.60;;
7365;SDS011;3723;52.220;8.792;2024-01-30T03:05:25;15.37;;;6.67;;
7365;SDS011;3723;52.220;8.792;2024-01-30T03:07:53;16.30;;;6.13;;
7365;SDS011;3723;52.220;8.792;2024-01-30T03:10:19;13.53;;;5.47;;
7365;SDS011;3723;52.220;8.792;2024-01-30T03:12:48;13.10;;;5.87;;
7365;SDS011;3723;52.220;8.792;2024-01-30T03:15:14;12.00;;;4.00;;
7365;SDS011;3723;52.220;8.792;2024-01-30T03:17:41;13.63;;;4.67;;
7365;SDS011;3723;52.220;8.792;2024-01-30T03:20:08;14.37;;;5.80;;
7365;SDS011;3723;52.220;8.792;2024-01-30T03:22:35;13.37;;;4.80;;
7365;SDS011;3723;52.220;8.792;2024-01-30T03:25:03;23.80;;;9.53;;
7365;SDS011;3723;52.220;8.792;2024-01-30T03:27:31;11.57;;;4.43;;
7365;SDS011;3723;52.220;8.792;2024-01-30T03:29:59;14.00;;;5.83;;
7365;SDS011;3723;52.220;8.792;2024-01-30T03:32:27;12.50;;;4.97;;
7365;SDS011;3723;52.220;8.792;2024-01-30T03:34:53;16.50;;;6.50;;
7365;SDS011;3723;52.220;8.792;2024-01-30T03:37:21;14.47;;;5.90;;
7365;SDS011;3723;52.220;8.792;2024-01-30T03:39:48;17.63;;;8.00;;
7365;SDS011;3723;52.220;8.792;2024-01-30T03:42:15;19.27;;;7.77;;
7365;SDS011;3723;52.220;8.792;2024-01-30T03:44:42;17.07;;;6.13;;
7365;SDS011;3723;52.220;8.792;2024-01-30T03:47:10;17.50;;;6.70;;
7365;SDS011;3723;52.220;8.792;2024-01-30T03:49:37;19.70;;;7.10;;
7365;SDS011;3723;52.220;8.792;2024-01-30T03:52:04;26.20;;;11.60;;
7365;SDS011;3723;52.220;8.792;2024-01-30T03:54:31;17.53;;;8.60;;
7365;SDS011;3723;52.220;8.792;2024-01-30T03:56:58;24.23;;;8.50;;
7365;SDS011;3723;52.220;8.792;2024-01-30T03:59:25;19.57;;;6.93;;
7365;SDS011;3723;52.220;8.792;2024-01-30T04:01:51;18.97;;;8.17;;
7365;SDS011;3723;52.220;8.792;2024-01-30T04:04:19;20.93;;;8.60;;
7365;SDS011;3723;52.220;8.792;2024-01-30T04:06:46;14.77;;;6.77;;
7365;SDS011;3723;52.220;8.792;2024-01-30T04:09:13;22.93;;;10.50;;
7365;SDS011;3723;52.220;8.792;2024-01-30T04:11:40;13.87;;;4.20;;
7365;SDS011;3723;52.220;8.792;2024-01-30T04:14:07;14.80;;;5.73;;
7365;SDS011;3723;52.220;8.792;2024-01-30T04:16:35;16.30;;;5.83;;
7365;SDS011;3723;52.220;8.792;2024-01-30T04:19:02;13.17;;;5.60;;
7365;SDS011;3723;52.220;8.792;2024-01-30T04:21:30;10.90;;;5.10;;
7365;SDS011;3723;52.220;8.792;2024-01-30T04:23:57;22.50;;;8.40;;
7365;SDS011;3723;52.220;8.792;2024-01-30T04:26:24;15.37;;;6.50;;
7365;SDS011;3723;52.220;8.792;2024-01-30T04:28:51;12.60;;;4.50;;
7365;SDS011;3723;52.220;8.792;2024-01-30T04:31:18;14.20;;;5.20;;
7365;SDS011;3723;52.220;8.792;2024-01-30T04:33:44;15.57;;;5.40;;
7365;SDS011;3723;52.220;8.792;2024-01-30T04:36:11;14.30;;;5.33;;
7365;SDS011;3723;52.220;8.792;2024-01-30T04:38:39;24.20;;;8.50;;
7365;SDS011;3723;52.220;8.792;2024-01-30T04:41:06;19.73;;;8.30;;
7365;SDS011;3723;52.220;8.792;2024-01-30T04:43:33;14.67;;;5.80;;
7365;SDS011;3723;52.220;8.792;2024-01-30T04:46:01;13.40;;;4.60;;
7365;SDS011;3723;52.220;8.792;2024-01-30T04:48:27;16.80;;;7.80;;
7365;SDS011;3723;52.220;8.792;2024-01-30T04:50:55;25.00;;;9.33;;
7365;SDS011;3723;52.220;8.792;2024-01-30T04:53:22;21.30;;;9.13;;
7365;SDS011;3723;52.220;8.792;2024-01-30T04:55:50;21.13;;;8.83;;
7365;SDS011;3723;52.220;8.792;2024-01-30T04:58:17;12.67;;;4.67;;
7365;SDS011;3723;52.220;8.792;2024-01-30T05:00:44;20.50;;;8.53;;
7365;SDS011;3723;52.220;8.792;2024-01-30T05:03:11;19.60;;;9.73;;
7365;SDS011;3723;52.220;8.792;2024-01-30T05:05:38;18.40;;;6.57;;
7365;SDS011;3723;52.220;8.792;2024-01-30T05:08:05;17.30;;;6.53;;
7365;SDS011;3723;52.220;8.792;2024-01-30T05:10:32;17.17;;;6.87;;
7365;SDS011;3723;52.220;8.792;2024-01-30T05:13:00;22.27;;;9.20;;
7365;SDS011;3723;52.220;8.792;2024-01-30T05:15:27;14.77;;;5.85;;
7365;SDS011;3723;52.220;8.792;2024-01-30T05:17:54;23.63;;;10.27;;
7365;SDS011;3723;52.220;8.792;2024-01-30T05:20:21;24.13;;;8.90;;
7365;SDS011;3723;52.220;8.792;2024-01-30T05:22:48;24.80;;;10.93;;
7365;SDS011;3723;52.220;8.792;2024-01-30T05:25:15;20.40;;;8.83;;
7365;SDS011;3723;52.220;8.792;2024-01-30T05:27:42;19.13;;;8.57;;
7365;SDS011;3723;52.220;8.792;2024-01-30T05:30:11;18.67;;;8.57;;
7365;SDS011;3723;52.220;8.792;2024-01-30T05:32:38;24.17;;;7.90;;
7365;SDS011;3723;52.220;8.792;2024-01-30T05:35:05;20.20;;;8.00;;
7365;SDS011;3723;52.220;8.792;2024-01-30T05:37:33;20.77;;;9.03;;
7365;SDS011;3723;52.220;8.792;2024-01-30T05:40:00;13.90;;;5.80;;
7365;SDS011;3723;52.220;8.792;2024-01-30T05:42:26;24.23;;;10.03;;
7365;SDS011;3723;52.220;8.792;2024-01-30T05:44:53;14.60;;;6.57;;
7365;SDS011;3723;52.220;8.792;2024-01-30T05:47:22;29.88;;;11.55;;
7365;SDS011;3723;52.220;8.792;2024-01-30T05:49:49;27.40;;;12.60;;
7365;SDS011;3723;52.220;8.792;2024-01-30T05:52:15;20.63;;;9.80;;
7365;SDS011;3723;52.220;8.792;2024-01-30T05:54:44;29.37;;;10.93;;
7365;SDS011;3723;52.220;8.792;2024-01-30T05:57:10;13.40;;;6.00;;
7365;SDS011;3723;52.220;8.792;2024-01-30T05:59:37;23.97;;;10.60;;
7365;SDS011;3723;52.220;8.792;2024-01-30T06:02:04;29.27;;;11.40;;
7365;SDS011;3723;52.220;8.792;2024-01-30T06:04:33;12.53;;;5.50;;
7365;SDS011;3723;52.220;8.792;2024-01-30T06:07:00;30.87;;;12.13;;
7365;SDS011;3723;52.220;8.792;2024-01-30T06:09:27;21.53;;;8.47;;
7365;SDS011;3723;52.220;8.792;2024-01-30T06:11:54;25.07;;;10.83;;
7365;SDS011;3723;52.220;8.792;2024-01-30T06:14:21;12.73;;;5.70;;
7365;SDS011;3723;52.220;8.792;2024-01-30T06:16:48;15.63;;;6.30;;
7365;SDS011;3723;52.220;8.792;2024-01-30T06:19:15;27.50;;;10.87;;
7365;SDS011;3723;52.220;8.792;2024-01-30T06:21:43;15.37;;;5.17;;
7365;SDS011;3723;52.220;8.792;2024-01-30T06:24:10;28.40;;;11.60;;
7365;SDS011;3723;52.220;8.792;2024-01-30T06:26:37;27.50;;;11.33;;
7365;SDS011;3723;52.220;8.792;2024-01-30T06:29:04;14.00;;;6.20;;
7365;SDS011;3723;52.220;8.792;2024-01-30T06:31:31;26.47;;;10.53;;
7365;SDS011;3723;52.220;8.792;2024-01-30T06:33:58;21.97;;;10.97;;
7365;SDS011;3723;52.220;8.792;2024-01-30T06:36:24;28.80;;;11.83;;
7365;SDS011;3723;52.220;8.792;2024-01-30T06:38:53;22.10;;;9.40;;
7365;SDS011;3723;52.220;8.792;2024-01-30T06:41:20;20.90;;;8.80;;
7365;SDS011;3723;52.220;8.792;2024-01-30T06:43:46;27.90;;;10.60;;
7365;SDS011;3723;52.220;8.792;2024-01-30T06:46:13;17.13;;;8.00;;
7365;SDS011;3723;52.220;8.792;2024-01-30T06:48:40;33.40;;;13.33;;
7365;SDS011;3723;52.220;8.792;2024-01-30T06:51:09;26.60;;;12.23;;
7365;SDS011;3723;52.220;8.792;2024-01-30T06:53:37;28.97;;;12.53;;
7365;SDS011;3723;52.220;8.792;2024-01-30T06:56:05;25.17;;;9.10;;
7365;SDS011;3723;52.220;8.792;2024-01-30T06:58:32;24.33;;;10.53;;
7365;SDS011;3723;52.220;8.792;2024-01-30T07:00:59;28.30;;;12.57;;
7365;SDS011;3723;52.220;8.792;2024-01-30T07:03:27;17.20;;;7.30;;
7365;SDS011;3723;52.220;8.792;2024-01-30T07:05:54;17.00;;;6.27;;
7365;SDS011;3723;52.220;8.792;2024-01-30T07:08:21;18.13;;;7.50;;
7365;SDS011;3723;52.220;8.792;2024-01-30T07:10:47;14.20;;;5.57;;
7365;SDS011;3723;52.220;8.792;2024-01-30T07:13:16;18.43;;;7.20;;
7365;SDS011;3723;52.220;8.792;2024-01-30T07:15:43;29.73;;;11.33;;
7365;SDS011;3723;52.220;8.792;2024-01-30T07:18:11;28.00;;;12.20;;
7365;SDS011;3723;52.220;8.792;2024-01-30T07:20:38;30.70;;;13.20;;
7365;SDS011;3723;52.220;8.792;2024-01-30T07:23:10;32.83;;;14.40;;
7365;SDS011;3723;52.220;8.792;2024-01-30T07:25:39;29.17;;;12.17;;
7365;SDS011;3723;52.220;8.792;2024-01-30T07:28:06;25.37;;;10.20;;
7365;SDS011;3723;52.220;8.792;2024-01-30T07:30:35;14.73;;;6.80;;
7365;SDS011;3723;52.220;8.792;2024-01-30T07:33:02;35.80;;;13.80;;
7365;SDS011;3723;52.220;8.792;2024-01-30T07:35:29;28.80;;;12.70;;
7365;SDS011;3723;52.220;8.792;2024-01-30T07:37:57;26.33;;;10.00;;
7365;SDS011;3723;52.220;8.792;2024-01-30T07:40:23;19.10;;;7.87;;
7365;SDS011;3723;52.220;8.792;2024-01-30T07:42:50;19.77;;;7.40;;
7365;SDS011;3723;52.220;8.792;2024-01-30T07:45:19;19.30;;;8.03;;
7365;SDS011;3723;52.220;8.792;2024-01-30T07:47:48;24.90;;;9.93;;
7365;SDS011;3723;52.220;8.792;2024-01-30T07:50:15;20.23;;;8.07;;
7365;SDS011;3723;52.220;8.792;2024-01-30T07:52:43;21.47;;;9.90;;
7365;SDS011;3723;52.220;8.792;2024-01-30T07:55:10;24.60;;;10.40;;
7365;SDS011;3723;52.220;8.792;2024-01-30T07:57:38;20.70;;;9.40;;
7365;SDS011;3723;52.220;8.792;2024-01-30T08:00:05;28.90;;;11.67;;
7365;SDS011;3723;52.220;8.792;2024-01-30T08:02:33;22.53;;;10.20;;
7365;SDS011;3723;52.220;8.792;2024-01-30T08:05:01;29.33;;;10.87;;
7365;SDS011;3723;52.220;8.792;2024-01-30T08:07:29;20.27;;;8.23;;
7365;SDS011;3723;52.220;8.792;2024-01-30T08:09:55;19.57;;;8.77;;
7365;SDS011;3723;52.220;8.792;2024-01-30T08:12:23;27.83;;;12.60;;
7365;SDS011;3723;52.220;8.792;2024-01-30T08:14:50;23.03;;;9.63;;
7365;SDS011;3723;52.220;8.792;2024-01-30T08:17:17;20.90;;;9.03;;
7365;SDS011;3723;52.220;8.792;2024-01-30T08:19:44;20.73;;;8.83;;
7365;SDS011;3723;52.220;8.792;2024-01-30T08:22:13;29.67;;;10.70;;
7365;SDS011;3723;52.220;8.792;2024-01-30T08:24:40;18.67;;;7.87;;
7365;SDS011;3723;52.220;8.792;2024-01-30T08:27:07;21.30;;;9.30;;
7365;SDS011;3723;52.220;8.792;2024-01-30T08:29:35;34.80;;;13.90;;
7365;SDS011;3723;52.220;8.792;2024-01-30T08:32:02;14.20;;;5.53;;
7365;SDS011;3723;52.220;8.792;2024-01-30T08:34:30;53.13;;;20.63;;
7365;SDS011;3723;52.220;8.792;2024-01-30T08:36:57;37.17;;;15.40;;
7365;SDS011;3723;52.220;8.792;2024-01-30T08:39:25;37.53;;;15.27;;
7365;SDS011;3723;52.220;8.792;2024-01-30T08:41:52;41.80;;;17.67;;
7365;SDS011;3723;52.220;8.792;2024-01-30T08:44:19;37.30;;;15.70;;
7365;SDS011;3723;52.220;8.792;2024-01-30T08:46:51;33.00;;;15.20;;
7365;SDS011;3723;52.220;8.792;2024-01-30T08:49:19;32.73;;;14.93;;
7365;SDS011;3723;52.220;8.792;2024-01-30T08:51:47;35.43;;;17.03;;
7365;SDS011;3723;52.220;8.792;2024-01-30T08:54:15;35.73;;;17.03;;
7365;SDS011;3723;52.220;8.792;2024-01-30T08:56:44;44.97;;;20.67;;
7365;SDS011;3723;52.220;8.792;2024-01-30T08:59:13;36.70;;;16.47;;
7365;SDS011;3723;52.220;8.792;2024-01-30T09:01:40;40.80;;;16.50;;
7365;SDS011;3723;52.220;8.792;2024-01-30T09:04:06;28.23;;;11.20;;
7365;SDS011;3723;52.220;8.792;2024-01-30T09:06:33;38.40;;;17.97;;
7365;SDS011;3723;52.220;8.792;2024-01-30T09:09:01;51.70;;;17.20;;
7365;SDS011;3723;52.220;8.792;2024-01-30T09:11:29;36.53;;;15.67;;
7365;SDS011;3723;52.220;8.792;2024-01-30T09:13:58;39.40;;;17.03;;
7365;SDS011;3723;52.220;8.792;2024-01-30T09:16:25;46.20;;;18.30;;
7365;SDS011;3723;52.220;8.792;2024-01-30T09:18:52;36.77;;;16.33;;
7365;SDS011;3723;52.220;8.792;2024-01-30T09:21:18;38.50;;;16.50;;
7365;SDS011;3723;52.220;8.792;2024-01-30T09:23:51;37.37;;;14.40;;
7365;SDS011;3723;52.220;8.792;2024-01-30T09:26:21;39.60;;;17.07;;
7365;SDS011;3723;52.220;8.792;2024-01-30T09:28:48;27.70;;;10.87;;
7365;SDS011;3723;52.220;8.792;2024-01-30T09:31:16;41.97;;;16.40;;
7365;SDS011;3723;52.220;8.792;2024-01-30T09:33:43;31.33;;;11.90;;
7365;SDS011;3723;52.220;8.792;2024-01-30T09:36:12;41.20;;;17.60;;
7365;SDS011;3723;52.220;8.792;2024-01-30T09:38:40;50.37;;;17.77;;
7365;SDS011;3723;52.220;8.792;2024-01-30T09:41:08;40.27;;;17.03;;
7365;SDS011;3723;52.220;8.792;2024-01-30T09:43:36;40.07;;;17.00;;
7365;SDS011;3723;52.220;8.792;2024-01-30T09:46:05;35.43;;;14.67;;
7365;SDS011;3723;52.220;8.792;2024-01-30T09:48:35;41.43;;;19.23;;
7365;SDS011;3723;52.220;8.792;2024-01-30T09:51:02;39.70;;;17.27;;
7365;SDS011;3723;52.220;8.792;2024-01-30T09:53:30;39.80;;;17.13;;
7365;SDS011;3723;52.220;8.792;2024-01-30T09:55:58;37.13;;;17.73;;
7365;SDS011;3723;52.220;8.792;2024-01-30T09:58:25;46.33;;;17.60;;
7365;SDS011;3723;52.220;8.792;2024-01-30T10:00:51;41.00;;;17.37;;
7365;SDS011;3723;52.220;8.792;2024-01-30T10:03:18;34.73;;;15.27;;
7365;SDS011;3723;52.220;8.792;2024-01-30T10:05:47;39.63;;;16.13;;
7365;SDS011;3723;52.220;8.792;2024-01-30T10:08:17;35.57;;;15.73;;
7365;SDS011;3723;52.220;8.792;2024-01-30T10:10:46;34.17;;;15.63;;
7365;SDS011;3723;52.220;8.792;2024-01-30T10:13:13;33.67;;;15.60;;
7365;SDS011;3723;52.220;8.792;2024-01-30T10:15:40;36.50;;;15.17;;
7365;SDS011;3723;52.220;8.792;2024-01-30T10:18:08;31.43;;;15.53;;
7365;SDS011;3723;52.220;8.792;2024-01-30T10:20:35;27.03;;;13.00;;
7365;SDS011;3723;52.220;8.792;2024-01-30T10:23:03;32.20;;;12.27;;
7365;SDS011;3723;52.220;8.792;2024-01-30T10:25:31;24.03;;;12.40;;
7365;SDS011;3723;52.220;8.792;2024-01-30T10:27:59;21.97;;;10.67;;
7365;SDS011;3723;52.220;8.792;2024-01-30T10:30:26;22.27;;;10.40;;
7365;SDS011;3723;52.220;8.792;2024-01-30T10:32:54;23.37;;;10.37;;
7365;SDS011;3723;52.220;8.792;2024-01-30T10:35:20;22.57;;;7.73;;
7365;SDS011;3723;52.220;8.792;2024-01-30T10:37:47;20.37;;;8.77;;
7365;SDS011;3723;52.220;8.792;2024-01-30T10:40:16;17.40;;;7.57;;
7365;SDS011;3723;52.220;8.792;2024-01-30T10:42:47;22.70;;;8.43;;
7365;SDS011;3723;52.220;8.792;2024-01-30T10:45:20;17.93;;;6.43;;
7365;SDS011;3723;52.220;8.792;2024-01-30T10:47:49;18.03;;;7.60;;
7365;SDS011;3723;52.220;8.792;2024-01-30T10:50:16;23.13;;;7.90;;
7365;SDS011;3723;52.220;8.792;2024-01-30T10:52:43;20.23;;;7.40;;
7365;SDS011;3723;52.220;8.792;2024-01-30T10:55:11;14.90;;;6.97;;
7365;SDS011;3723;52.220;8.792;2024-01-30T10:57:39;15.27;;;6.50;;
7365;SDS011;3723;52.220;8.792;2024-01-30T11:00:07;21.97;;;7.80;;
7365;SDS011;3723;52.220;8.792;2024-01-30T11:02:36;17.20;;;6.70;;
7365;SDS011;3723;52.220;8.792;2024-01-30T11:05:05;14.40;;;6.17;;
7365;SDS011;3723;52.220;8.792;2024-01-30T11:07:33;13.87;;;5.40;;
7365;SDS011;3723;52.220;8.792;2024-01-30T11:10:01;13.20;;;5.57;;
7365;SDS011;3723;52.220;8.792;2024-01-30T11:12:30;16.70;;;5.20;;
7365;SDS011;3723;52.220;8.792;2024-01-30T11:15:05;14.07;;;4.73;;
7365;SDS011;3723;52.220;8.792;2024-01-30T11:17:41;20.73;;;4.40;;
7365;SDS011;3723;52.220;8.792;2024-01-30T11:20:09;12.90;;;4.00;;
7365;SDS011;3723;52.220;8.792;2024-01-30T11:22:40;11.53;;;3.87;;
7365;SDS011;3723;52.220;8.792;2024-01-30T11:25:11;10.40;;;3.50;;
7365;SDS011;3723;52.220;8.792;2024-01-30T11:27:38;13.67;;;3.07;;
7365;SDS011;3723;52.220;8.792;2024-01-30T11:30:08;10.10;;;2.57;;
7365;SDS011;3723;52.220;8.792;2024-01-30T11:32:35;9.37;;;2.40;;
7365;SDS011;3723;52.220;8.792;2024-01-30T11:35:03;8.43;;;2.13;;
7365;SDS011;3723;52.220;8.792;2024-01-30T11:37:31;9.53;;;2.13;;
7365;SDS011;3723;52.220;8.792;2024-01-30T11:39:58;13.40;;;2.50;;
7365;SDS011;3723;52.220;8.792;2024-01-30T11:42:25;10.70;;;2.70;;
7365;SDS011;3723;52.220;8.792;2024-01-30T11:44:53;10.17;;;2.50;;
7365;SDS011;3723;52.220;8.792;2024-01-30T11:47:21;11.60;;;2.83;;
7365;SDS011;3723;52.220;8.792;2024-01-30T11:49:49;11.70;;;2.40;;
7365;SDS011;3723;52.220;8.792;2024-01-30T11:52:16;10.03;;;2.87;;
7365;SDS011;3723;52.220;8.792;2024-01-30T11:54:43;9.50;;;2.10;;
7365;SDS011;3723;52.220;8.792;2024-01-30T11:57:10;9.33;;;2.23;;
7365;SDS011;3723;52.220;8.792;2024-01-30T11:59:37;10.80;;;3.20;;
7365;SDS011;3723;52.220;8.792;2024-01-30T12:02:04;12.70;;;4.13;;
7365;SDS011;3723;52.220;8.792;2024-01-30T12:04:32;13.20;;;4.00;;
7365;SDS011;3723;52.220;8.792;2024-01-30T12:06:59;17.10;;;3.10;;
7365;SDS011;3723;52.220;8.792;2024-01-30T12:09:26;12.30;;;3.30;;
7365;SDS011;3723;52.220;8.792;2024-01-30T12:11:53;10.03;;;2.80;;
7365;SDS011;3723;52.220;8.792;2024-01-30T12:14:20;9.97;;;2.30;;
7365;SDS011;3723;52.220;8.792;2024-01-30T12:16:50;9.13;;;2.40;;
7365;SDS011;3723;52.220;8.792;2024-01-30T12:19:21;13.23;;;3.17;;
7365;SDS011;3723;52.220;8.792;2024-01-30T12:21:55;11.47;;;3.17;;
7365;SDS011;3723;52.220;8.792;2024-01-30T12:24:24;12.83;;;3.30;;
7365;SDS011;3723;52.220;8.792;2024-01-30T12:26:51;12.03;;;3.20;;
7365;SDS011;3723;52.220;8.792;2024-01-30T12:32:14;16.50;;;5.60;;
7365;SDS011;3723;52.220;8.792;2024-01-30T12:34:42;15.90;;;3.27;;
7365;SDS011;3723;52.220;8.792;2024-01-30T12:37:10;10.97;;;2.80;;
7365;SDS011;3723;52.220;8.792;2024-01-30T12:39:38;11.50;;;2.20;;
7365;SDS011;3723;52.220;8.792;2024-01-30T12:44:53;14.97;;;3.70;;
7365;SDS011;3723;52.220;8.792;2024-01-30T12:47:21;13.03;;;3.00;;
7365;SDS011;3723;52.220;8.792;2024-01-30T12:49:49;13.43;;;3.50;;
7365;SDS011;3723;52.220;8.792;2024-01-30T12:52:20;11.87;;;3.33;;
7365;SDS011;3723;52.220;8.792;2024-01-30T12:54:48;15.43;;;2.90;;
7365;SDS011;3723;52.220;8.792;2024-01-30T12:57:15;12.77;;;2.70;;
7365;SDS011;3723;52.220;8.792;2024-01-30T12:59:43;12.73;;;2.73;;
7365;SDS011;3723;52.220;8.792;2024-01-30T13:02:11;10.43;;;2.33;;
7365;SDS011;3723;52.220;8.792;2024-01-30T13:04:38;11.20;;;2.90;;
7365;SDS011;3723;52.220;8.792;2024-01-30T13:07:07;11.07;;;2.70;;
7365;SDS011;3723;52.220;8.792;2024-01-30T13:09:36;15.93;;;3.53;;
7365;SDS011;3723;52.220;8.792;2024-01-30T13:12:03;10.20;;;2.53;;
7365;SDS011;3723;52.220;8.792;2024-01-30T13:14:30;10.80;;;3.17;;
7365;SDS011;3723;52.220;8.792;2024-01-30T13:16:57;12.77;;;3.00;;
7365;SDS011;3723;52.220;8.792;2024-01-30T13:19:24;9.33;;;2.33;;
7365;SDS011;3723;52.220;8.792;2024-01-30T13:21:52;15.10;;;3.83;;
7365;SDS011;3723;52.220;8.792;2024-01-30T13:24:19;19.23;;;3.30;;
7365;SDS011;3723;52.220;8.792;2024-01-30T13:26:51;11.20;;;3.53;;
7365;SDS011;3723;52.220;8.792;2024-01-30T13:29:18;11.50;;;2.90;;
7365;SDS011;3723;52.220;8.792;2024-01-30T13:31:45;10.40;;;3.20;;
7365;SDS011;3723;52.220;8.792;2024-01-30T13:34:12;10.63;;;3.03;;
7365;SDS011;3723;52.220;8.792;2024-01-30T13:36:39;10.40;;;3.10;;
7365;SDS011;3723;52.220;8.792;2024-01-30T13:39:06;16.33;;;3.90;;
7365;SDS011;3723;52.220;8.792;2024-01-30T13:41:34;12.70;;;3.47;;
7365;SDS011;3723;52.220;8.792;2024-01-30T13:44:02;13.40;;;3.67;;
7365;SDS011;3723;52.220;8.792;2024-01-30T13:46:29;10.40;;;2.93;;
7365;SDS011;3723;52.220;8.792;2024-01-30T13:48:56;11.70;;;3.00;;
7365;SDS011;3723;52.220;8.792;2024-01-30T13:51:23;13.60;;;3.60;;
7365;SDS011;3723;52.220;8.792;2024-01-30T13:53:49;11.37;;;2.87;;
7365;SDS011;3723;52.220;8.792;2024-01-30T13:56:16;11.20;;;3.80;;
7365;SDS011;3723;52.220;8.792;2024-01-30T13:58:44;11.67;;;3.90;;
7365;SDS011;3723;52.220;8.792;2024-01-30T14:01:12;12.33;;;3.37;;
7365;SDS011;3723;52.220;8.792;2024-01-30T14:03:40;16.37;;;4.43;;
7365;SDS011;3723;52.220;8.792;2024-01-30T14:06:07;13.10;;;4.17;;
7365;SDS011;3723;52.220;8.792;2024-01-30T14:08:34;13.27;;;3.60;;
7365;SDS011;3723;52.220;8.792;2024-01-30T14:11:01;9.67;;;2.87;;
7365;SDS011;3723;52.220;8.792;2024-01-30T14:13:28;16.30;;;4.60;;
7365;SDS011;3723;52.220;8.792;2024-01-30T14:15:56;12.27;;;4.00;;
7365;SDS011;3723;52.220;8.792;2024-01-30T14:18:27;16.00;;;4.80;;
7365;SDS011;3723;52.220;8.792;2024-01-30T14:20:54;11.03;;;4.10;;
7365;SDS011;3723;52.220;8.792;2024-01-30T14:23:21;9.87;;;3.30;;
7365;SDS011;3723;52.220;8.792;2024-01-30T14:25:48;13.63;;;4.07;;
7365;SDS011;3723;52.220;8.792;2024-01-30T14:28:16;12.97;;;3.80;;
7365;SDS011;3723;52.220;8.792;2024-01-30T14:30:43;12.67;;;3.80;;
7365;SDS011;3723;52.220;8.792;2024-01-30T14:33:14;13.70;;;3.67;;
7365;SDS011;3723;52.220;8.792;2024-01-30T14:35:43;19.43;;;4.23;;
7365;SDS011;3723;52.220;8.792;2024-01-30T14:38:10;12.40;;;4.73;;
7365;SDS011;3723;52.220;8.792;2024-01-30T14:40:38;13.70;;;4.23;;
7365;SDS011;3723;52.220;8.792;2024-01-30T14:43:05;13.43;;;4.43;;
7365;SDS011;3723;52.220;8.792;2024-01-30T14:45:32;12.37;;;4.20;;
7365;SDS011;3723;52.220;8.792;2024-01-30T14:47:59;15.03;;;4.90;;
7365;SDS011;3723;52.220;8.792;2024-01-30T14:50:26;14.20;;;4.43;;
7365;SDS011;3723;52.220;8.792;2024-01-30T14:52:54;14.43;;;4.80;;
7365;SDS011;3723;52.220;8.792;2024-01-30T14:55:21;13.73;;;4.47;;
7365;SDS011;3723;52.220;8.792;2024-01-30T14:57:49;11.17;;;4.37;;
7365;SDS011;3723;52.220;8.792;2024-01-30T15:00:16;17.27;;;4.87;;
7365;SDS011;3723;52.220;8.792;2024-01-30T15:02:44;19.30;;;5.37;;
7365;SDS011;3723;52.220;8.792;2024-01-30T15:05:13;12.53;;;3.87;;